createdAt,value
2023-02-04T00:00:38.810Z,515.03
2023-02-04T00:03:07.503Z,578.85
2023-02-04T00:05:36.308Z,536.10
2023-02-04T00:08:04.949Z,464.92
2023-02-04T00:10:33.756Z,540.53
2023-02-04T00:13:03.798Z,549.38
2023-02-04T00:15:32.230Z,510.17
2023-02-04T00:18:00.689Z,482.38
2023-02-04T00:20:29.422Z,516.72
2023-02-04T00:22:58.083Z,515.30
2023-02-04T00:25:26.603Z,548.03
2023-02-04T00:27:55.051Z,451.92
2023-02-04T00:30:24.782Z,499.30
2023-02-04T00:32:54.914Z,473.42
2023-02-04T00:35:23.690Z,488.95
2023-02-04T00:37:52.220Z,535.42
2023-02-04T00:40:20.752Z,558.60
2023-02-04T00:42:50.628Z,491.25
2023-02-04T00:45:18.973Z,504.27
2023-02-04T00:47:48.789Z,490.75
2023-02-04T00:50:17.627Z,511.75
2023-02-04T00:52:46.034Z,568.53
2023-02-04T00:55:16.931Z,576.03
2023-02-04T00:57:46.960Z,450.50
2023-02-04T01:00:16.565Z,522.83
2023-02-04T01:02:45.007Z,575.17
2023-02-04T01:05:14.760Z,530.90
2023-02-04T01:07:43.254Z,570.17
2023-02-04T01:10:11.924Z,589.65
2023-02-04T01:12:40.436Z,576.80
2023-02-04T01:15:09.576Z,464.98
2023-02-04T01:17:38.149Z,460.30
2023-02-04T01:20:06.949Z,557.72
2023-02-04T01:22:36.652Z,555.72
2023-02-04T01:25:05.739Z,457.10
2023-02-04T01:27:34.153Z,516.47
2023-02-04T01:30:02.813Z,460.80
2023-02-04T01:32:31.103Z,534.28
2023-02-04T01:34:59.464Z,515.17
2023-02-04T01:37:27.830Z,515.15
2023-02-04T01:39:57.532Z,416.80
2023-02-04T01:42:25.925Z,493.42
2023-02-04T01:44:54.512Z,468.17
2023-02-04T01:47:23.630Z,546.97
2023-02-04T01:49:54.073Z,404.95
2023-02-04T01:52:22.821Z,408.08
2023-02-04T01:54:51.355Z,479.30
2023-02-04T01:57:21.097Z,442.02
2023-02-04T01:59:55.962Z,373.95
2023-02-04T02:02:41.562Z,419.10
2023-02-04T02:05:12.097Z,431.90
2023-02-04T02:07:41.550Z,452.83
2023-02-04T02:10:12.731Z,381.83
2023-02-04T02:12:42.965Z,427.13
2023-02-04T02:15:12.467Z,438.48
2023-02-04T02:17:41.400Z,457.88
2023-02-04T02:20:11.311Z,400.38
2023-02-04T02:22:46.684Z,451.65
2023-02-04T02:25:16.921Z,407.02
2023-02-04T02:27:45.558Z,442.88
2023-02-04T02:30:17.555Z,450.38
2023-02-04T02:32:46.494Z,434.42
2023-02-04T02:35:15.279Z,453.73
2023-02-04T02:37:43.719Z,484.20
2023-02-04T02:40:13.304Z,490.02
2023-02-04T02:42:44.353Z,484.73
2023-02-04T02:45:19.984Z,499.75
2023-02-04T02:47:48.483Z,516.50
2023-02-04T02:50:18.615Z,487.60
2023-02-04T02:52:47.146Z,487.98
2023-02-04T02:55:17.836Z,496.45
2023-02-04T02:57:48.649Z,550.80
2023-02-04T03:00:19.819Z,530.08
2023-02-04T03:02:57.609Z,541.00
2023-02-04T03:05:26.878Z,536.40
2023-02-04T03:07:55.220Z,533.35
2023-02-04T03:10:23.655Z,545.55
2023-02-04T03:12:53.351Z,571.13
2023-02-04T03:15:22.049Z,543.90
2023-02-04T03:17:56.147Z,549.78
2023-02-04T03:20:25.749Z,545.75
2023-02-04T03:22:54.579Z,561.10
2023-02-04T03:25:24.599Z,566.38
2023-02-04T03:27:54.922Z,531.38
2023-02-04T03:30:23.632Z,512.60
2023-02-04T03:32:52.904Z,525.80
2023-02-04T03:35:21.412Z,515.38
2023-02-04T03:37:49.775Z,548.30
2023-02-04T03:40:18.379Z,530.00
2023-02-04T03:42:46.669Z,530.60
2023-02-04T03:45:16.593Z,530.53
2023-02-04T03:47:44.974Z,566.78
2023-02-04T03:50:14.331Z,541.38
2023-02-04T03:52:42.745Z,516.75
2023-02-04T03:55:11.137Z,554.13
2023-02-04T03:57:39.523Z,535.50
2023-02-04T04:00:09.059Z,553.00
2023-02-04T04:02:38.780Z,537.20
2023-02-04T04:05:08.104Z,548.15
2023-02-04T04:07:36.438Z,533.97
2023-02-04T04:10:05.549Z,561.00
2023-02-04T04:12:34.221Z,553.75
2023-02-04T04:15:02.570Z,591.67
2023-02-04T04:17:30.946Z,582.72
2023-02-04T04:20:00.627Z,594.78
2023-02-04T04:22:29.146Z,584.53
2023-02-04T04:24:57.482Z,581.50
2023-02-04T04:27:25.981Z,563.03
2023-02-04T04:29:54.373Z,585.78
2023-02-04T04:32:22.829Z,588.08
2023-02-04T04:34:51.191Z,563.72
2023-02-04T04:37:20.880Z,568.08
2023-02-04T04:39:49.178Z,579.63
2023-02-04T04:42:17.509Z,558.22
2023-02-04T04:44:45.867Z,557.42
2023-02-04T04:47:14.324Z,563.90
2023-02-04T04:49:42.699Z,618.85
2023-02-04T04:52:11.113Z,569.33
2023-02-04T04:54:40.911Z,567.28
2023-02-04T04:57:09.319Z,563.53
2023-02-04T04:59:37.668Z,594.15
2023-02-04T05:02:06.101Z,562.88
2023-02-04T05:04:34.629Z,556.92
2023-02-04T05:07:02.988Z,571.92
2023-02-04T05:09:31.571Z,559.67
2023-02-04T05:12:01.250Z,576.13
2023-02-04T05:14:29.669Z,604.40
2023-02-04T05:16:58.035Z,613.72
2023-02-04T05:19:26.528Z,611.60
2023-02-04T05:21:54.935Z,612.08
2023-02-04T05:24:23.367Z,609.13
2023-02-04T05:26:51.701Z,585.83
2023-02-04T05:29:21.353Z,595.20
2023-02-04T05:31:49.710Z,595.70
2023-02-04T05:34:18.063Z,596.83
2023-02-04T05:36:46.399Z,585.22
2023-02-04T05:39:14.726Z,582.55
2023-02-04T05:41:43.109Z,606.30
2023-02-04T05:44:11.471Z,582.03
2023-02-04T05:46:41.177Z,634.13
2023-02-04T05:49:09.573Z,624.28
2023-02-04T05:51:38.046Z,620.15
2023-02-04T05:54:06.382Z,567.85
2023-02-04T05:56:34.760Z,605.80
2023-02-04T05:59:03.169Z,584.30
2023-02-04T06:01:31.484Z,587.33
2023-02-04T06:04:01.260Z,594.75
2023-02-04T06:06:29.643Z,589.83
2023-02-04T06:08:57.951Z,586.67
2023-02-04T06:11:26.256Z,608.40
2023-02-04T06:13:54.624Z,580.28
2023-02-04T06:16:22.986Z,577.75
2023-02-04T06:18:51.380Z,581.72
2023-02-04T06:21:21.267Z,566.50
2023-02-04T06:23:49.635Z,585.15
2023-02-04T06:26:17.986Z,616.20
2023-02-04T06:28:46.521Z,609.70
2023-02-04T06:31:14.940Z,583.55
2023-02-04T06:33:43.690Z,600.88
2023-02-04T06:36:12.227Z,634.13
2023-02-04T06:38:42.043Z,618.92
2023-02-04T06:41:10.406Z,661.28
2023-02-04T06:43:38.760Z,639.65
2023-02-04T06:46:07.380Z,639.47
2023-02-04T06:48:35.777Z,623.38
2023-02-04T06:51:04.159Z,624.88
2023-02-04T06:53:32.565Z,619.53
2023-02-04T06:56:02.245Z,629.28
2023-02-04T06:58:30.561Z,615.72
2023-02-04T07:00:58.968Z,653.25
2023-02-04T07:03:27.431Z,652.60
2023-02-04T07:05:55.916Z,631.50
2023-02-04T07:08:24.306Z,630.55
2023-02-04T07:10:52.685Z,630.63
2023-02-04T07:13:22.897Z,653.42
2023-02-04T07:15:52.937Z,606.55
2023-02-04T07:18:21.447Z,615.30
2023-02-04T07:20:49.829Z,612.30
2023-02-04T07:23:18.519Z,656.85
2023-02-04T07:25:47.018Z,618.05
2023-02-04T07:28:15.521Z,620.00
2023-02-04T07:30:45.396Z,585.92
2023-02-04T07:33:13.818Z,642.70
2023-02-04T07:35:42.238Z,601.38
2023-02-04T07:38:10.592Z,607.00
2023-02-04T07:40:39.296Z,601.92
2023-02-04T07:43:07.799Z,606.10
2023-02-04T07:45:36.764Z,606.75
2023-02-04T07:48:23.388Z,599.95
2023-02-04T07:50:51.843Z,624.22
2023-02-04T07:53:35.186Z,608.53
2023-02-04T07:56:03.649Z,610.42
2023-02-04T07:58:32.005Z,625.20
2023-02-04T08:01:01.293Z,725.58
2023-02-04T08:03:41.443Z,612.38
2023-02-04T08:06:14.186Z,576.15
2023-02-04T08:08:42.695Z,588.88
2023-02-04T08:11:11.084Z,574.65
2023-02-04T08:13:39.481Z,566.13
2023-02-04T08:16:08.321Z,533.08
2023-02-04T08:18:38.176Z,633.20
2023-02-04T08:21:06.842Z,568.53
2023-02-04T08:23:35.269Z,536.30
2023-02-04T08:26:03.615Z,576.33
2023-02-04T08:28:35.822Z,554.25
2023-02-04T08:31:04.733Z,624.17
2023-02-04T08:33:38.136Z,590.78
2023-02-04T08:36:08.245Z,511.13
2023-02-04T08:38:36.944Z,485.35
2023-02-04T08:41:09.765Z,523.05
2023-02-04T08:43:38.186Z,533.60
2023-02-04T08:46:07.570Z,463.50
2023-02-04T08:48:37.336Z,501.80
2023-02-04T08:51:06.037Z,447.42
2023-02-04T08:53:34.481Z,491.80
2023-02-04T08:56:03.209Z,450.83
2023-02-04T08:58:31.552Z,521.42
2023-02-04T09:00:59.941Z,456.05
2023-02-04T09:03:28.300Z,478.55
2023-02-04T09:05:58.031Z,446.67
2023-02-04T09:08:38.668Z,478.98
2023-02-04T09:11:07.108Z,567.72
2023-02-04T09:13:35.586Z,541.75
2023-02-04T09:16:04.038Z,530.15
2023-02-04T09:18:32.733Z,567.22
2023-02-04T09:21:36.090Z,485.60
2023-02-04T09:24:06.411Z,439.80
2023-02-04T09:26:34.819Z,509.35
2023-02-04T09:29:03.136Z,340.48
2023-02-04T09:31:31.853Z,358.88
2023-02-04T09:34:01.107Z,312.80
2023-02-04T09:36:30.630Z,223.73
2023-02-04T09:43:52.854Z,205.98
2023-02-04T09:46:24.209Z,175.13
2023-02-04T09:48:53.022Z,329.73
2023-02-04T09:51:23.979Z,174.13
2023-02-04T09:53:53.916Z,178.48
2023-02-04T09:56:22.315Z,184.88
2023-02-04T09:58:50.805Z,175.73
2023-02-04T10:01:20.562Z,226.32
2023-02-04T10:03:51.474Z,174.73
2023-02-04T10:06:22.191Z,146.77
2023-02-04T10:08:52.326Z,205.10
2023-02-04T10:11:22.544Z,135.85
2023-02-04T10:13:52.387Z,316.77
2023-02-04T10:16:23.745Z,139.13
2023-02-04T10:18:53.495Z,267.63
2023-02-04T10:21:24.038Z,231.38
2023-02-04T10:23:55.555Z,155.90
2023-02-04T10:26:25.026Z,141.35
2023-02-04T10:29:00.402Z,134.88
2023-02-04T10:31:36.002Z,177.07
2023-02-04T10:34:18.573Z,119.82
2023-02-04T10:36:49.156Z,120.13
2023-02-04T10:39:19.139Z,145.02
2023-02-04T10:41:49.909Z,115.93
2023-02-04T10:44:20.112Z,127.18
2023-02-04T10:46:48.851Z,123.47
2023-02-04T10:49:22.678Z,126.50
2023-02-04T10:51:52.779Z,253.20
2023-02-04T10:54:32.131Z,192.23
2023-02-04T10:57:02.168Z,194.10
2023-02-04T10:59:30.610Z,277.55
2023-02-04T11:02:00.519Z,146.57
2023-02-04T11:04:30.308Z,212.68
2023-02-04T11:06:58.669Z,313.52
2023-02-04T11:09:27.157Z,128.10
2023-02-04T11:11:59.596Z,155.30
2023-02-04T11:14:30.448Z,211.75
2023-02-04T11:17:01.010Z,117.20
2023-02-04T11:19:36.317Z,110.00
2023-02-04T11:22:20.179Z,112.07
2023-02-04T11:24:48.629Z,199.05
2023-02-04T11:27:26.864Z,121.28
2023-02-04T11:30:06.709Z,123.03
2023-02-04T11:32:37.897Z,117.60
2023-02-04T11:35:26.224Z,124.30
2023-02-04T11:37:55.889Z,120.82
2023-02-04T11:40:30.446Z,247.57
2023-02-04T11:43:04.085Z,122.40
2023-02-04T11:45:34.961Z,111.07
2023-02-04T11:48:05.094Z,104.57
2023-02-04T11:50:38.423Z,125.07
2023-02-04T11:53:07.288Z,157.85
2023-02-04T11:55:37.862Z,240.45
2023-02-04T11:58:10.065Z,203.40
2023-02-04T12:00:38.566Z,346.08
2023-02-04T12:03:18.257Z,116.47
2023-02-04T12:05:49.594Z,331.40
2023-02-04T12:08:28.591Z,189.60
2023-02-04T12:11:07.438Z,122.32
2023-02-04T12:13:36.347Z,97.50
2023-02-04T12:16:06.388Z,199.75
2023-02-04T12:18:36.056Z,159.98
2023-02-04T12:21:06.184Z,142.45
2023-02-04T12:23:34.597Z,97.95
2023-02-04T12:26:02.968Z,94.05
2023-02-04T12:28:31.495Z,273.75
2023-02-04T12:30:59.960Z,170.90
2023-02-04T12:33:28.675Z,100.32
2023-02-04T12:35:57.064Z,96.05
2023-02-04T12:38:27.709Z,90.97
2023-02-04T12:40:56.095Z,154.23
2023-02-04T12:43:28.169Z,106.82
2023-02-04T12:45:56.793Z,124.68
2023-02-04T12:48:25.939Z,152.98
2023-02-04T12:50:54.493Z,138.23
2023-02-04T12:53:22.976Z,105.35
2023-02-04T12:55:52.748Z,92.00
2023-02-04T12:58:21.116Z,99.47
2023-02-04T13:00:49.682Z,120.85
2023-02-04T13:03:18.671Z,107.72
2023-02-04T13:05:47.204Z,106.13
2023-02-04T13:16:03.825Z,107.28
2023-02-04T13:18:32.345Z,244.52
2023-02-04T13:21:01.739Z,117.65
2023-02-04T13:23:30.201Z,144.05
2023-02-04T13:25:58.685Z,190.55
2023-02-04T13:28:27.025Z,110.88
2023-02-04T13:30:55.461Z,141.65
2023-02-04T13:33:25.279Z,113.13
2023-02-04T13:35:53.666Z,103.15
2023-02-04T13:38:22.048Z,100.90
2023-02-04T13:40:50.438Z,229.45
2023-02-04T13:43:19.382Z,107.70
2023-02-04T13:45:48.926Z,268.30
2023-02-04T13:48:17.851Z,123.65
2023-02-04T13:50:47.729Z,148.10
2023-02-04T13:53:16.085Z,253.00
2023-02-04T13:55:44.701Z,155.07
2023-02-04T13:58:13.141Z,134.73
2023-02-04T14:00:41.615Z,221.25
2023-02-04T14:03:10.004Z,133.07
2023-02-04T14:05:38.404Z,94.78
2023-02-04T14:08:08.184Z,171.40
2023-02-04T14:10:38.559Z,107.63
2023-02-04T14:13:07.122Z,96.30
2023-02-04T14:15:37.656Z,102.80
2023-02-04T14:18:06.327Z,96.05
2023-02-04T14:20:35.974Z,93.40
2023-02-04T14:23:05.220Z,153.80
2023-02-04T14:25:35.125Z,129.43
2023-02-04T14:28:04.108Z,134.50
2023-02-04T14:30:33.616Z,150.63
2023-02-04T14:33:02.291Z,108.90
2023-02-04T14:35:49.784Z,103.00
2023-02-04T14:38:20.778Z,104.93
2023-02-04T14:40:50.850Z,215.65
2023-02-04T14:43:19.299Z,90.05
2023-02-04T14:45:50.245Z,108.60
2023-02-04T14:48:21.465Z,97.40
2023-02-04T14:50:50.066Z,169.70
2023-02-04T14:53:21.489Z,116.53
2023-02-04T14:55:51.306Z,109.63
2023-02-04T14:58:19.961Z,107.72
2023-02-04T15:00:48.794Z,109.90
2023-02-04T15:03:17.185Z,149.55
2023-02-04T15:05:45.699Z,139.40
2023-02-04T15:08:14.135Z,203.13
2023-02-04T15:10:42.624Z,213.15
2023-02-04T15:13:13.167Z,93.75
2023-02-04T15:15:41.639Z,94.43
2023-02-04T15:18:10.066Z,98.82
2023-02-04T15:20:38.527Z,134.15
2023-02-04T15:23:06.968Z,113.85
2023-02-04T15:25:38.669Z,116.32
2023-02-04T15:28:07.377Z,99.57
2023-02-04T15:30:37.657Z,83.07
2023-02-04T15:33:09.244Z,134.02
2023-02-04T15:35:37.610Z,102.53
2023-02-04T15:38:06.101Z,98.43
2023-02-04T15:40:34.707Z,100.40
2023-02-04T15:43:03.512Z,118.10
2023-02-04T15:45:31.915Z,105.97
2023-02-04T15:48:01.807Z,102.38
2023-02-04T15:50:31.312Z,140.23
2023-02-04T15:53:00.016Z,108.15
2023-02-04T15:55:28.617Z,89.30
2023-02-04T15:57:57.381Z,207.57
2023-02-04T16:00:27.672Z,167.65
2023-02-04T16:02:56.141Z,151.27
2023-02-04T16:05:26.279Z,94.05
2023-02-04T16:07:54.608Z,99.85
2023-02-04T16:10:23.363Z,100.18
2023-02-04T16:12:52.545Z,82.90
2023-02-04T16:15:20.909Z,99.43
2023-02-04T16:17:49.280Z,163.77
2023-02-04T16:20:17.904Z,119.25
2023-02-04T16:22:47.715Z,116.68
2023-02-04T16:25:16.730Z,218.13
2023-02-04T16:27:45.224Z,98.32
2023-02-04T16:30:14.461Z,205.82
2023-02-04T16:32:42.894Z,146.73
2023-02-04T16:35:11.556Z,152.40
2023-02-04T16:37:39.911Z,142.10
2023-02-04T16:40:13.514Z,193.30
2023-02-04T16:42:41.997Z,165.30
2023-02-04T16:45:13.422Z,175.05
2023-02-04T16:47:41.856Z,205.30
2023-02-04T16:50:11.217Z,124.25
2023-02-04T16:52:39.635Z,232.70
2023-02-04T16:55:10.030Z,172.32
2023-02-04T16:57:38.437Z,124.15
2023-02-04T17:00:08.114Z,199.30
2023-02-04T17:02:37.264Z,142.63
2023-02-04T17:05:06.558Z,153.85
2023-02-04T17:07:35.037Z,178.95
2023-02-04T17:10:03.564Z,185.10
2023-02-04T17:12:33.376Z,261.30
2023-02-04T17:15:01.738Z,239.15
2023-02-04T17:17:30.513Z,205.57
2023-02-04T17:20:13.412Z,240.50
2023-02-04T17:22:42.950Z,477.35
2023-02-04T17:25:11.483Z,363.40
2023-02-04T17:27:41.899Z,153.65
2023-02-04T17:30:11.842Z,144.63
2023-02-04T17:32:40.491Z,147.38
2023-02-04T17:35:09.831Z,115.43
2023-02-04T17:37:51.874Z,188.68
2023-02-04T17:40:20.681Z,183.02
2023-02-04T17:43:08.331Z,381.73
2023-02-04T17:45:37.122Z,372.27
2023-02-04T17:48:09.330Z,332.33
2023-02-04T17:50:40.077Z,237.27
2023-02-04T17:53:09.938Z,287.55
2023-02-04T17:55:49.808Z,288.45
2023-02-04T17:58:30.891Z,339.80
2023-02-04T18:01:00.229Z,357.45
2023-02-04T18:03:32.592Z,370.13
2023-02-04T18:06:02.141Z,376.10
2023-02-04T18:08:36.242Z,370.13
2023-02-04T18:11:09.506Z,760.10
2023-02-04T18:13:39.343Z,407.90
2023-02-04T18:16:17.199Z,401.73
2023-02-04T18:18:45.673Z,408.33
2023-02-04T18:21:20.369Z,436.85
2023-02-04T18:26:20.297Z,476.55
2023-02-04T18:28:51.596Z,487.80
2023-02-04T18:31:30.971Z,494.00
2023-02-04T18:33:59.499Z,514.25
2023-02-04T18:36:28.334Z,455.88
2023-02-04T18:38:57.314Z,481.38
2023-02-04T18:41:33.977Z,432.95
2023-02-04T18:44:20.512Z,513.58
2023-02-04T18:46:49.374Z,481.52
2023-02-04T18:49:22.018Z,422.42
2023-02-04T18:51:51.900Z,450.63
2023-02-04T18:54:39.564Z,564.80
2023-02-04T18:57:30.840Z,445.23
2023-02-04T19:00:27.675Z,524.70
2023-02-04T19:02:58.872Z,506.23
2023-02-04T19:05:30.408Z,503.52
2023-02-04T19:08:19.518Z,444.02
2023-02-04T19:10:48.063Z,515.42
2023-02-04T19:13:22.148Z,538.17
2023-02-04T19:16:19.003Z,566.22
2023-02-04T19:18:47.743Z,491.08
2023-02-04T19:21:24.844Z,523.05
2023-02-04T19:23:57.909Z,503.77
2023-02-04T19:26:36.158Z,508.15
2023-02-04T19:29:38.188Z,525.05
2023-02-04T19:32:23.156Z,512.20
2023-02-04T19:34:52.636Z,497.33
2023-02-04T19:37:24.681Z,504.98
2023-02-04T19:39:53.979Z,507.90
2023-02-04T19:42:30.614Z,487.63
2023-02-04T19:45:00.708Z,476.10
2023-02-04T19:47:35.614Z,500.30
2023-02-04T19:50:34.209Z,504.40
2023-02-04T19:53:04.773Z,506.88
2023-02-04T19:55:36.662Z,540.70
2023-02-04T19:58:20.302Z,525.50
2023-02-04T20:01:00.660Z,520.05
2023-02-04T20:03:37.765Z,522.88
2023-02-04T20:06:27.247Z,490.25
2023-02-04T20:09:01.529Z,498.90
2023-02-04T20:11:55.681Z,469.05
2023-02-04T20:14:47.665Z,444.00
2023-02-04T20:17:50.600Z,498.55
2023-02-04T20:20:31.001Z,495.95
2023-02-04T20:23:00.345Z,485.70
2023-02-04T20:25:40.061Z,456.40
2023-02-04T20:28:40.823Z,474.08
2023-02-04T20:31:27.140Z,474.55
2023-02-04T20:33:57.192Z,505.90
2023-02-04T20:36:47.903Z,448.60
2023-02-04T20:39:34.728Z,546.40
2023-02-04T20:42:36.161Z,479.25
2023-02-04T20:45:33.062Z,472.50
2023-02-04T20:48:11.872Z,502.95
2023-02-04T20:50:45.786Z,487.95
2023-02-04T20:53:26.490Z,473.17
2023-02-04T20:56:03.448Z,468.27
2023-02-04T20:58:36.953Z,485.27
2023-02-04T21:01:18.531Z,498.55
2023-02-04T21:03:47.061Z,483.58
2023-02-04T21:06:23.375Z,456.42
2023-02-04T21:08:54.514Z,462.00
2023-02-04T21:11:23.458Z,468.75
2023-02-04T21:13:53.501Z,483.83
2023-02-04T21:16:22.328Z,481.80
2023-02-04T21:18:50.884Z,500.98
2023-02-04T21:21:23.069Z,479.10
2023-02-04T21:23:53.008Z,427.10
2023-02-04T21:26:21.585Z,497.60
2023-02-04T21:28:50.269Z,498.42
2023-02-04T21:31:19.033Z,495.30
2023-02-04T21:33:47.661Z,450.85
2023-02-04T21:36:16.095Z,515.83
2023-02-04T21:38:47.023Z,491.92
2023-02-04T21:41:17.086Z,481.80
2023-02-04T21:43:45.580Z,452.73
2023-02-04T21:46:14.107Z,501.95
2023-02-04T21:48:42.798Z,459.63
2023-02-04T21:51:11.329Z,454.08
2023-02-04T21:53:39.983Z,457.08
2023-02-04T21:56:09.162Z,411.30
2023-02-04T21:58:39.609Z,470.05
2023-02-04T22:01:08.078Z,450.63
2023-02-04T22:03:37.001Z,446.30
2023-02-04T22:06:05.742Z,481.50
2023-02-04T22:08:34.318Z,468.00
2023-02-04T22:11:02.973Z,428.70
2023-02-04T22:13:31.532Z,461.17
2023-02-04T22:16:01.660Z,451.35
2023-02-04T22:18:30.600Z,467.73
2023-02-04T22:20:59.185Z,441.67
2023-02-04T22:23:27.722Z,453.35
2023-02-04T22:25:56.068Z,445.23
2023-02-04T22:28:24.482Z,444.50
2023-02-04T22:30:54.299Z,416.33
2023-02-04T22:33:24.458Z,375.95
2023-02-04T22:35:52.985Z,414.60
2023-02-04T22:38:21.521Z,388.98
2023-02-04T22:40:50.118Z,397.00
2023-02-04T22:43:18.808Z,362.75
2023-02-04T22:45:47.314Z,399.70
2023-02-04T22:48:15.927Z,376.27
2023-02-04T22:50:45.874Z,360.48
2023-02-04T22:53:14.349Z,374.90
2023-02-04T22:55:42.881Z,393.42
2023-02-04T22:58:11.378Z,355.08
2023-02-04T23:00:41.988Z,364.58
2023-02-04T23:03:10.556Z,364.13
2023-02-04T23:05:39.462Z,365.80
2023-02-04T23:08:09.410Z,394.58
2023-02-04T23:10:39.006Z,368.48
2023-02-04T23:13:07.985Z,370.50
2023-02-04T23:15:36.767Z,373.83
2023-02-04T23:18:05.441Z,335.05
2023-02-04T23:20:35.088Z,331.13
2023-02-04T23:23:03.778Z,334.40
2023-02-04T23:25:34.874Z,317.35
2023-02-04T23:28:03.828Z,373.73
2023-02-04T23:30:32.580Z,356.67
2023-02-04T23:33:01.177Z,359.05
2023-02-04T23:35:29.786Z,333.52
2023-02-04T23:37:58.535Z,363.58
2023-02-04T23:40:27.394Z,374.40
2023-02-04T23:42:57.310Z,326.80
2023-02-04T23:45:25.976Z,316.20
2023-02-04T23:47:54.565Z,284.63
2023-02-04T23:50:23.227Z,341.50
2023-02-04T23:52:51.763Z,312.20
2023-02-04T23:55:20.373Z,329.30
2023-02-04T23:57:49.653Z,379.52
